Map

Track Data

SID SEASON NUMBER BASIN SUBBASIN NAME ISO_TIME NATURE LAT LON WMO_WIND WMO_PRES WMO_AGENCY TRACK_TYPE DIST2LAND LANDFALL IFLAG USA_AGENCY USA_ATCF_ID USA_LAT USA_LON USA_RECORD USA_STATUS USA_WIND USA_PRES USA_SSHS USA_R34_NE USA_R34_SE USA_R34_SW USA_R34_NW USA_R50_NE USA_R50_SE USA_R50_SW USA_R50_NW USA_R64_NE USA_R64_SE USA_R64_SW USA_R64_NW USA_POCI USA_ROCI USA_RMW USA_EYE TOKYO_LAT TOKYO_LON TOKYO_GRADE TOKYO_WIND TOKYO_PRES TOKYO_R50_DIR TOKYO_R50_LONG TOKYO_R50_SHORT TOKYO_R30_DIR TOKYO_R30_LONG TOKYO_R30_SHORT TOKYO_LAND CMA_LAT CMA_LON CMA_CAT CMA_WIND CMA_PRES HKO_LAT HKO_LON HKO_CAT HKO_WIND HKO_PRES NEWDELHI_LAT NEWDELHI_LON NEWDELHI_GRADE NEWDELHI_WIND NEWDELHI_PRES NEWDELHI_CI NEWDELHI_DP NEWDELHI_POCI REUNION_LAT REUNION_LON REUNION_TYPE REUNION_WIND REUNION_PRES REUNION_TNUM REUNION_CI REUNION_RMW REUNION_R34_NE REUNION_R34_SE REUNION_R34_SW REUNION_R34_NW REUNION_R50_NE REUNION_R50_SE REUNION_R50_SW REUNION_R50_NW REUNION_R64_NE REUNION_R64_SE REUNION_R64_SW REUNION_R64_NW BOM_LAT BOM_LON BOM_TYPE BOM_WIND BOM_PRES BOM_TNUM BOM_CI BOM_RMW BOM_R34_NE BOM_R34_SE BOM_R34_SW BOM_R34_NW BOM_R50_NE BOM_R50_SE BOM_R50_SW BOM_R50_NW BOM_R64_NE BOM_R64_SE BOM_R64_SW BOM_R64_NW BOM_ROCI BOM_POCI BOM_EYE BOM_POS_METHOD BOM_PRES_METHOD NADI_LAT NADI_LON NADI_CAT NADI_WIND NADI_PRES WELLINGTON_LAT WELLINGTON_LON WELLINGTON_WIND WELLINGTON_PRES DS824_LAT DS824_LON DS824_STAGE DS824_WIND DS824_PRES TD9636_LAT TD9636_LON TD9636_STAGE TD9636_WIND TD9636_PRES TD9635_LAT TD9635_LON TD9635_WIND TD9635_PRES TD9635_ROCI NEUMANN_LAT NEUMANN_LON NEUMANN_CLASS NEUMANN_WIND NEUMANN_PRES MLC_LAT MLC_LON MLC_CLASS MLC_WIND MLC_PRES USA_GUST BOM_GUST BOM_GUST_PER REUNION_GUST REUNION_GUST_PER USA_SEAHGT USA_SEARAD_NE USA_SEARAD_SE USA_SEARAD_SW USA_SEARAD_NW STORM_SPEED STORM_DIR
1987245N17120 1987 69 WP MM NOT_NAMED 1987-09-02 06:00:00 TS 16.8000 119.500 main 64 64 __O___________ -1 16.8000 119.500 1 23 1002 11 265
1987245N17120 1987 69 WP MM NOT_NAMED 1987-09-02 09:00:00 TS 16.7503 118.940 main 111 105 __P___________ -1 16.7503 118.940 1 23 1002 11 265
1987245N17120 1987 69 WP MM NOT_NAMED 1987-09-02 12:00:00 TS 16.7000 118.400 main 155 155 __O___________ -1 16.7000 118.400 1 23 1002 10 264
1987245N17120 1987 69 WP MM NOT_NAMED 1987-09-02 15:00:00 TS 16.6498 117.893 main 203 203 __P___________ -1 16.6498 117.893 1 23 1002 10 264
1987245N17120 1987 69 WP MM NOT_NAMED 1987-09-02 18:00:00 TS 16.6000 117.400 main 254 254 __O___________ -1 16.6000 117.400 1 23 1002 10 264
1987245N17120 1987 69 WP MM NOT_NAMED 1987-09-02 21:00:00 TS 16.5499 116.893 main 304 304 __P___________ -1 16.5499 116.893 1 23 1002 10 264
1987245N17120 1987 69 WP MM NOT_NAMED 1987-09-03 00:00:00 TS 16.5000 116.400 main 356 356 __O___________ -1 16.5000 116.400 1 23 1002 9 264
1987245N17120 1987 69 WP MM NOT_NAMED 1987-09-03 03:00:00 TS 16.4500 115.913 main 409 408 __P___________ -1 16.4500 115.913 1 23 1002 9 263
1987245N17120 1987 69 WP MM NOT_NAMED 1987-09-03 06:00:00 TS 16.4000 115.500 main 450 450 __O___________ -1 16.4000 115.500 1 23 1002 7 263
1987245N17120 1987 69 WP MM NOT_NAMED 1987-09-03 09:00:00 TS 16.3648 115.228 main 482 481 __P___________ -1 16.3648 115.228 1 26 1001 5 258
1987245N17120 1987 69 WP MM NOT_NAMED 1987-09-03 12:00:00 TS 16.3000 115.000 main 503 503 __O___________ -1 16.3000 115.000 1 29 1000 5 248
1987245N17120 1987 69 WP MM NOT_NAMED 1987-09-03 15:00:00 TS 16.1650 114.707 main 532 519 __P___________ -1 16.1650 114.707 1 29 1000 7 242
1987245N17120 1987 69 WP MM NOT_NAMED 1987-09-03 18:00:00 TS 16.0000 114.400 main 519 501 __O___________ -1 16.0000 114.400 1 29 1000 7 241
1987245N17120 1987 69 WP MM NOT_NAMED 1987-09-03 21:00:00 TS 15.8350 114.100 main 508 492 __P___________ -1 15.8350 114.100 1 29 1000 7 243
1987245N17120 1987 69 WP MM NOT_NAMED 1987-09-04 00:00:00 TS 15.7000 113.800 main 493 477 __O___________ -1 15.7000 113.800 1 29 1000 6 251
1987245N17120 1987 69 WP MM NOT_NAMED 1987-09-04 03:00:00 TS 15.6350 113.485 main 478 451 __P___________ -1 15.6350 113.485 1 29 1000 6 260
1987245N17120 1987 69 WP MM NOT_NAMED 1987-09-04 06:00:00 TS 15.6000 113.200 main 451 428 __O___________ -1 15.6000 113.200 1 29 1000 5 258
1987245N17120 1987 69 WP MM NOT_NAMED 1987-09-04 09:00:00 TS 15.5423 113.015 main 428 407 __P___________ -1 15.5423 113.015 1 29 1000 4 255
1987245N17120 1987 69 WP MM NOT_NAMED 1987-09-04 12:00:00 TS 15.5000 112.800 main 407 375 __O___________ -1 15.5000 112.800 1 29 1000 6 266
1987245N17120 1987 69 WP MM NOT_NAMED 1987-09-04 15:00:00 TS 15.5000 112.445 main 365 324 __P___________ -1 15.5000 112.445 1 26 1001 8 270
1987245N17120 1987 69 WP MM NOT_NAMED 1987-09-04 18:00:00 TS 15.5000 112.000 main 324 272 __O___________ -1 15.5000 112.000 1 23 1002 9 267
1987245N17120 1987 69 WP MM NOT_NAMED 1987-09-04 21:00:00 TS 15.4575 111.515 main 272 218 __P___________ -1 15.4575 111.515 1 23 1002 10 264
1987245N17120 1987 69 WP MM NOT_NAMED 1987-09-05 00:00:00 TS 15.4000 111.000 main 218 164 __O___________ -1 15.4000 111.000 1 23 1002 10 263
1987245N17120 1987 69 WP MM NOT_NAMED 1987-09-05 03:00:00 TS 15.3424 110.500 main 164 116 __P___________ -1 15.3424 110.500 1 23 1002 10 264
1987245N17120 1987 69 WP MM NOT_NAMED 1987-09-05 06:00:00 TS 15.3000 110.000 main 116 65 __O___________ -1 15.3000 110.000 1 23 1002 10 267
1987245N17120 1987 69 WP MM NOT_NAMED 1987-09-05 09:00:00 TS 15.2923 109.508 main 65 15 __P___________ -1 15.2923 109.508 1 23 1002 10 270
1987245N17120 1987 69 WP MM NOT_NAMED 1987-09-05 12:00:00 TS 15.3000 109.000 main 15 0 __O___________ -1 15.3000 109.000 1 23 1002 10 271
1987245N17120 1987 69 WP MM NOT_NAMED 1987-09-05 15:00:00 TS 15.3028 108.460 main 0 0 __P___________ -1 15.3028 108.460 1 21 1002 11 270
1987245N17120 1987 69 WP MM NOT_NAMED 1987-09-05 18:00:00 TS 15.3000 107.900 main 0 __O___________ -1 15.3000 107.900 0 19 1002 11 270

Digital Typhoon Data and Search

About IBTrACS Database

This database is a web-friendly format of International Best Track Archive for Climate Stewardship (IBTrACS), a global best track data archive curated by NOAA dating back to 1842.

Updated: 2021-10-25